createdAt,value
2019-01-23T00:02:23.257Z,96625.59
2019-01-23T00:04:55.436Z,96614.05
2019-01-23T00:07:27.442Z,96615.80
2019-01-23T00:09:59.401Z,96620.95
2019-01-23T00:12:31.390Z,96610.05
2019-01-23T00:15:03.799Z,96604.89
2019-01-23T00:17:36.279Z,96599.11
2019-01-23T00:20:08.256Z,96591.97
2019-01-23T00:22:42.057Z,96587.19
2019-01-23T00:25:14.044Z,96591.48
2019-01-23T00:27:46.052Z,96589.22
2019-01-23T00:30:18.008Z,96585.47
2019-01-23T00:32:49.998Z,96576.69
2019-01-23T00:35:21.978Z,96574.41
2019-01-23T00:37:53.979Z,96570.91
2019-01-23T00:40:25.968Z,96562.27
2019-01-23T00:42:57.939Z,96563.45
2019-01-23T00:45:30.025Z,96563.30
2019-01-23T00:48:01.993Z,96563.37
2019-01-23T00:50:33.971Z,96559.37
2019-01-23T00:53:05.973Z,96555.75
2019-01-23T00:55:37.968Z,96545.19
2019-01-23T00:58:09.948Z,96543.80
2019-01-23T01:00:41.919Z,96543.38
2019-01-23T01:03:13.889Z,96540.42
2019-01-23T01:05:45.875Z,96534.82
2019-01-23T01:08:17.833Z,96539.06
2019-01-23T01:10:49.833Z,96536.31
2019-01-23T01:13:21.819Z,96536.11
2019-01-23T01:15:53.786Z,96536.63
2019-01-23T01:18:25.786Z,96532.03
2019-01-23T01:20:57.775Z,96529.67
2019-01-23T01:23:29.760Z,96526.44
2019-01-23T01:26:01.833Z,96526.23
2019-01-23T01:28:33.885Z,96523.97
2019-01-23T01:31:05.840Z,96521.36
2019-01-23T01:33:37.794Z,96513.29
2019-01-23T01:36:09.775Z,96509.36
2019-01-23T01:38:41.987Z,96508.11
2019-01-23T01:41:13.983Z,96505.52
2019-01-23T01:43:45.948Z,96507.80
2019-01-23T01:46:17.940Z,96500.77
2019-01-23T01:48:49.903Z,96494.45
2019-01-23T01:51:21.918Z,96492.36
2019-01-23T01:53:53.871Z,96491.31
2019-01-23T01:56:25.849Z,96493.94
2019-01-23T01:59:02.722Z,96487.37
2019-01-23T02:01:31.724Z,96480.83
2019-01-23T02:04:03.701Z,96479.67
2019-01-23T02:06:35.708Z,96481.95
2019-01-23T02:09:10.886Z,96480.76
2019-01-23T02:11:42.872Z,96473.80
2019-01-23T02:14:14.854Z,96467.45
2019-01-23T02:16:46.897Z,96462.67
2019-01-23T02:19:18.802Z,96459.39
2019-01-23T02:21:50.833Z,96457.77
2019-01-23T02:24:22.809Z,96460.88
2019-01-23T02:26:54.783Z,96454.75
2019-01-23T02:29:26.774Z,96453.83
2019-01-23T02:31:58.756Z,96449.20
2019-01-23T02:34:30.751Z,96452.17
2019-01-23T02:37:02.716Z,96442.84
2019-01-23T02:39:34.718Z,96435.95
2019-01-23T02:42:06.678Z,96432.39
2019-01-23T02:44:38.657Z,96426.55
2019-01-23T02:47:10.608Z,96425.73
2019-01-23T02:49:42.618Z,96418.51
2019-01-23T02:52:14.571Z,96414.22
2019-01-23T02:54:46.550Z,96410.30
2019-01-23T02:57:18.505Z,96410.30
2019-01-23T02:59:50.481Z,96405.67
2019-01-23T03:02:22.465Z,96402.98
2019-01-23T03:04:54.471Z,96394.58
2019-01-23T03:07:26.456Z,96395.02
2019-01-23T03:09:58.440Z,96387.57
2019-01-23T03:12:30.406Z,96395.48
2019-01-23T03:15:02.584Z,96386.85
2019-01-23T03:17:34.613Z,96385.20
2019-01-23T03:20:08.618Z,96371.27
2019-01-23T03:22:40.607Z,96374.82
2019-01-23T03:25:12.968Z,96373.37
2019-01-23T03:27:44.951Z,96368.92
2019-01-23T03:30:18.815Z,96363.06
2019-01-23T03:32:50.823Z,96364.14
2019-01-23T03:35:22.811Z,96370.89
2019-01-23T03:37:54.765Z,96364.58
2019-01-23T03:40:26.737Z,96358.70
2019-01-23T03:42:58.713Z,96363.66
2019-01-23T03:45:30.687Z,96361.89
2019-01-23T03:48:02.643Z,96362.12
2019-01-23T03:50:34.636Z,96360.02
2019-01-23T03:53:06.584Z,96354.69
2019-01-23T03:55:38.563Z,96359.23
2019-01-23T03:58:10.537Z,96353.97
2019-01-23T04:00:42.634Z,96355.00
2019-01-23T04:03:14.566Z,96357.05
2019-01-23T04:05:46.604Z,96359.20
2019-01-23T04:08:18.556Z,96357.64
2019-01-23T04:10:50.531Z,96356.42
2019-01-23T04:13:22.496Z,96354.25
2019-01-23T04:15:54.468Z,96355.44
2019-01-23T04:18:26.448Z,96346.40
2019-01-23T04:20:58.436Z,96346.88
2019-01-23T04:23:30.400Z,96346.72
2019-01-23T04:26:02.393Z,96347.72
2019-01-23T04:28:34.368Z,96336.91
2019-01-23T04:31:06.342Z,96337.68
2019-01-23T04:33:38.373Z,96330.91
2019-01-23T04:36:10.331Z,96324.63
2019-01-23T04:38:42.322Z,96325.62
2019-01-23T04:41:14.271Z,96320.00
2019-01-23T04:43:46.298Z,96313.38
2019-01-23T04:46:18.280Z,96309.48
2019-01-23T04:48:50.275Z,96304.91
2019-01-23T04:51:41.854Z,96300.38
2019-01-23T04:54:15.942Z,96300.83
2019-01-23T04:56:47.919Z,96299.41
2019-01-23T04:59:19.920Z,96292.13
2019-01-23T05:01:51.868Z,96294.19
2019-01-23T05:04:23.839Z,96293.42
2019-01-23T05:06:55.840Z,96290.98
2019-01-23T05:09:27.835Z,96286.66
2019-01-23T05:11:59.802Z,96281.55
2019-01-23T05:14:31.792Z,96278.39
2019-01-23T05:17:03.740Z,96282.23
2019-01-23T05:19:35.752Z,96280.22
2019-01-23T05:22:07.736Z,96272.61
2019-01-23T05:24:39.728Z,96268.44
2019-01-23T05:27:11.719Z,96266.88
2019-01-23T05:29:43.707Z,96261.60
2019-01-23T05:32:15.693Z,96264.52
2019-01-23T05:34:47.680Z,96264.09
2019-01-23T05:37:19.639Z,96260.92
2019-01-23T05:39:51.612Z,96256.42
2019-01-23T05:42:23.601Z,96250.64
2019-01-23T05:44:55.594Z,96250.77
2019-01-23T05:47:27.590Z,96248.00
2019-01-23T05:49:59.561Z,96246.84
2019-01-23T05:52:31.602Z,96247.23
2019-01-23T05:55:04.269Z,96245.75
2019-01-23T05:57:36.269Z,96250.33
2019-01-23T06:00:11.097Z,96248.80
2019-01-23T06:02:43.104Z,96249.38
2019-01-23T06:05:15.558Z,96251.33
2019-01-23T06:07:47.549Z,96247.67
2019-01-23T06:10:19.519Z,96248.89
2019-01-23T06:12:54.007Z,96245.36
2019-01-23T06:15:25.946Z,96245.30
2019-01-23T06:17:57.935Z,96245.03
2019-01-23T06:20:29.884Z,96243.09
2019-01-23T06:23:01.853Z,96241.88
2019-01-23T06:25:33.824Z,96249.75
2019-01-23T06:28:05.825Z,96238.48
2019-01-23T06:30:37.913Z,96248.92
2019-01-23T06:33:09.900Z,96246.66
2019-01-23T06:35:41.886Z,96251.48
2019-01-23T06:38:13.902Z,96252.64
2019-01-23T06:40:45.860Z,96252.16
2019-01-23T06:43:17.841Z,96247.95
2019-01-23T06:45:49.819Z,96243.27
2019-01-23T06:48:21.838Z,96245.03
2019-01-23T06:50:53.821Z,96242.20
2019-01-23T06:53:25.812Z,96246.38
2019-01-23T06:55:57.840Z,96246.53
2019-01-23T06:58:29.830Z,96242.02
2019-01-23T07:01:01.797Z,96241.09
2019-01-23T07:03:33.779Z,96240.39
2019-01-23T07:06:05.773Z,96237.41
2019-01-23T07:08:37.752Z,96238.78
2019-01-23T07:11:09.726Z,96237.47
2019-01-23T07:13:41.731Z,96240.56
2019-01-23T07:16:13.690Z,96238.62
2019-01-23T07:18:45.997Z,96243.13
2019-01-23T07:21:19.230Z,96233.38
2019-01-23T07:23:51.639Z,96225.24
2019-01-23T07:26:23.618Z,96232.64
2019-01-23T07:28:55.673Z,96231.93
2019-01-23T07:31:29.465Z,96228.73
2019-01-23T07:34:01.441Z,96223.09
2019-01-23T07:36:39.777Z,96222.97
2019-01-23T07:39:09.367Z,96233.81
2019-01-23T07:41:41.356Z,96226.67
2019-01-23T07:44:13.360Z,96223.88
2019-01-23T07:46:45.379Z,96228.17
2019-01-23T07:49:17.335Z,96223.40
2019-01-23T07:51:49.333Z,96216.54
2019-01-23T07:54:21.299Z,96218.94
2019-01-23T07:56:53.283Z,96221.13
2019-01-23T07:59:25.245Z,96219.16
2019-01-23T08:01:57.468Z,96216.44
2019-01-23T08:04:30.647Z,96212.47
2019-01-23T08:07:02.707Z,96214.19
2019-01-23T08:09:34.674Z,96215.34
2019-01-23T08:12:10.641Z,96206.06
2019-01-23T08:14:41.947Z,96204.66
2019-01-23T08:17:14.237Z,96209.55
2019-01-23T08:19:46.230Z,96205.77
2019-01-23T08:22:18.269Z,96210.06
2019-01-23T08:24:50.195Z,96210.47
2019-01-23T08:27:22.188Z,96208.89
2019-01-23T08:29:54.170Z,96210.91
2019-01-23T08:32:26.178Z,96205.90
2019-01-23T08:34:59.052Z,96206.88
2019-01-23T08:37:31.072Z,96205.47
2019-01-23T08:40:04.541Z,96209.16
2019-01-23T08:42:36.532Z,96205.64
2019-01-23T08:45:09.407Z,96204.23
2019-01-23T08:47:41.483Z,96203.87
2019-01-23T08:50:34.826Z,96196.16
2019-01-23T08:53:07.033Z,96193.33
2019-01-23T08:55:38.980Z,96194.91
2019-01-23T08:58:11.105Z,96199.47
2019-01-23T09:00:45.925Z,96192.17
2019-01-23T09:03:17.051Z,96192.59
2019-01-23T09:05:49.129Z,96185.36
2019-01-23T09:08:21.107Z,96188.83
2019-01-23T09:10:53.086Z,96192.69
2019-01-23T09:13:25.071Z,96186.56
2019-01-23T09:15:57.052Z,96195.43
2019-01-23T09:18:29.132Z,96185.89
2019-01-23T09:21:01.161Z,96191.36
2019-01-23T09:23:33.176Z,96187.00
2019-01-23T09:26:05.136Z,96191.03
2019-01-23T09:28:37.176Z,96189.69
2019-01-23T09:31:17.500Z,96183.90
2019-01-23T09:34:18.642Z,96187.52
2019-01-23T09:37:08.928Z,96184.57
2019-01-23T09:40:11.012Z,96181.02
2019-01-23T09:43:43.037Z,96184.80
2019-01-23T09:46:43.787Z,96190.34
2019-01-23T09:49:47.183Z,96181.33
2019-01-23T09:53:10.450Z,96180.06
2019-01-23T09:55:42.428Z,96172.78
2019-01-23T09:58:14.455Z,96171.36
2019-01-23T10:00:48.269Z,96173.72
2019-01-23T10:03:23.149Z,96178.98
2019-01-23T10:05:55.367Z,96168.30
2019-01-23T10:08:27.340Z,96174.35
2019-01-23T10:10:59.390Z,96167.02
2019-01-23T10:13:31.372Z,96170.93
2019-01-23T10:16:12.954Z,96164.59
2019-01-23T10:18:44.934Z,96163.61
2019-01-23T10:21:17.064Z,96162.07
2019-01-23T10:23:49.035Z,96155.00
2019-01-23T10:26:21.166Z,96160.07
2019-01-23T10:28:53.162Z,96161.59
2019-01-23T10:31:25.168Z,96158.31
2019-01-23T10:33:57.139Z,96147.02
2019-01-23T10:36:29.158Z,96148.33
2019-01-23T10:39:01.106Z,96147.90
2019-01-23T10:41:33.091Z,96150.84
2019-01-23T10:44:05.089Z,96145.68
2019-01-23T10:46:37.099Z,96138.89
2019-01-23T10:49:09.069Z,96135.44
2019-01-23T10:51:41.105Z,96143.23
2019-01-23T10:54:13.121Z,96137.94
2019-01-23T10:56:45.130Z,96137.70
2019-01-23T10:59:17.111Z,96138.09
2019-01-23T11:01:49.113Z,96136.09
2019-01-23T11:04:21.225Z,96132.67
2019-01-23T11:06:53.240Z,96139.94
2019-01-23T11:09:25.341Z,96131.92
2019-01-23T11:11:57.451Z,96131.92
2019-01-23T11:14:29.474Z,96127.45
2019-01-23T11:17:22.873Z,96125.88
2019-01-23T11:19:54.837Z,96119.11
2019-01-23T11:22:26.859Z,96121.09
2019-01-23T11:24:58.872Z,96122.53
2019-01-23T11:27:30.913Z,96118.17
2019-01-23T11:30:43.713Z,96120.82
2019-01-23T11:33:15.779Z,96118.52
2019-01-23T11:35:47.767Z,96115.20
2019-01-23T11:38:19.797Z,96114.02
2019-01-23T11:40:51.777Z,96113.63
2019-01-23T11:43:23.803Z,96115.20
2019-01-23T11:45:55.827Z,96122.94
2019-01-23T11:48:27.921Z,96116.73
2019-01-23T11:50:59.921Z,96116.46
2019-01-23T11:53:31.921Z,96113.12
2019-01-23T11:59:17.080Z,96114.73
2019-01-23T12:01:49.041Z,96113.08
2019-01-23T12:04:21.096Z,96112.84
2019-01-23T12:06:53.434Z,96108.31
2019-01-23T12:09:25.419Z,96112.95
2019-01-23T12:11:57.434Z,96109.55
2019-01-23T12:14:29.460Z,96114.66
2019-01-23T12:17:01.445Z,96111.35
2019-01-23T12:19:33.480Z,96109.23
2019-01-23T12:22:05.495Z,96108.56
2019-01-23T12:24:37.528Z,96108.87
2019-01-23T12:27:09.546Z,96107.44
2019-01-23T12:29:41.593Z,96105.80
2019-01-23T12:32:13.613Z,96101.63
2019-01-23T12:34:45.630Z,96110.64
2019-01-23T12:37:17.627Z,96104.33
2019-01-23T12:39:49.654Z,96110.33
2019-01-23T12:42:21.712Z,96100.47
2019-01-23T12:44:53.700Z,96094.08
2019-01-23T12:47:25.695Z,96098.63
2019-01-23T12:49:57.675Z,96100.38
2019-01-23T12:52:29.663Z,96094.05
2019-01-23T12:55:01.662Z,96094.91
2019-01-23T12:57:33.822Z,96084.65
2019-01-23T13:00:09.017Z,96089.61
2019-01-23T13:02:41.040Z,96086.14
2019-01-23T13:05:16.036Z,96084.00
2019-01-23T13:07:48.060Z,96082.94
2019-01-23T13:10:20.508Z,96077.63
2019-01-23T13:12:53.355Z,96077.52
2019-01-23T13:15:25.726Z,96073.75
2019-01-23T13:17:57.741Z,96080.34
2019-01-23T13:20:29.745Z,96079.75
2019-01-23T13:23:01.763Z,96088.77
2019-01-23T13:25:33.752Z,96089.34
2019-01-23T13:28:06.094Z,96083.16
2019-01-23T13:30:38.133Z,96081.11
2019-01-23T13:33:10.142Z,96084.39
2019-01-23T13:35:42.160Z,96084.12
2019-01-23T13:38:16.323Z,96093.70
2019-01-23T13:40:48.330Z,96088.45
2019-01-23T13:43:20.409Z,96093.30
2019-01-23T13:45:52.447Z,96097.47
2019-01-23T13:48:24.464Z,96099.98
2019-01-23T13:50:56.480Z,96101.80
2019-01-23T13:53:28.566Z,96101.61
2019-01-23T13:56:00.569Z,96106.95
2019-01-23T13:58:32.572Z,96102.38
2019-01-23T14:01:05.000Z,96098.83
2019-01-23T14:03:36.991Z,96106.94
2019-01-23T14:06:09.017Z,96108.09
2019-01-23T14:08:41.033Z,96118.73
2019-01-23T14:11:13.077Z,96116.77
2019-01-23T14:13:45.072Z,96117.52
2019-01-23T14:16:17.120Z,96117.05
2019-01-23T14:18:49.150Z,96119.64
2019-01-23T14:21:21.233Z,96126.33
2019-01-23T14:23:53.284Z,96119.36
2019-01-23T14:26:25.309Z,96119.30
2019-01-23T14:28:57.302Z,96124.52
2019-01-23T14:31:29.333Z,96126.05
2019-01-23T14:34:01.337Z,96124.52
2019-01-23T14:36:33.385Z,96119.30
2019-01-23T14:39:06.754Z,96123.13
2019-01-23T14:41:38.808Z,96122.73
2019-01-23T14:44:10.791Z,96127.66
2019-01-23T14:46:42.808Z,96122.63
2019-01-23T14:49:14.829Z,96124.31
2019-01-23T14:51:46.873Z,96129.35
2019-01-23T14:54:18.945Z,96128.16
2019-01-23T14:56:50.981Z,96136.25
2019-01-23T14:59:23.015Z,96134.25
2019-01-23T15:01:55.096Z,96144.58
2019-01-23T15:04:27.084Z,96139.40
2019-01-23T15:06:59.126Z,96141.78
2019-01-23T15:09:31.141Z,96145.00
2019-01-23T15:12:03.151Z,96148.33
2019-01-23T15:14:35.183Z,96146.63
2019-01-23T15:17:07.209Z,96150.70
2019-01-23T15:19:39.300Z,96155.59
2019-01-23T15:22:11.346Z,96157.19
2019-01-23T15:24:43.384Z,96161.23
2019-01-23T15:27:15.388Z,96164.84
2019-01-23T15:29:47.434Z,96169.38
2019-01-23T15:32:19.453Z,96173.68
2019-01-23T15:34:51.456Z,96180.70
2019-01-23T15:37:23.466Z,96180.83
2019-01-23T15:39:55.547Z,96192.07
2019-01-23T15:42:27.556Z,96190.09
2019-01-23T15:44:59.570Z,96193.59
2019-01-23T15:47:31.673Z,96196.38
2019-01-23T15:50:05.446Z,96201.41
2019-01-23T15:52:37.511Z,96194.09
2019-01-23T15:55:11.906Z,96206.12
2019-01-23T15:57:43.923Z,96209.92
2019-01-23T16:00:27.618Z,96214.78
2019-01-23T16:02:59.642Z,96213.44
2019-01-23T16:05:31.658Z,96211.97
2019-01-23T16:08:03.884Z,96218.92
2019-01-23T16:10:35.907Z,96217.72
2019-01-23T16:13:07.923Z,96223.14
2019-01-23T16:15:39.981Z,96231.88
2019-01-23T16:18:12.025Z,96229.67
2019-01-23T16:20:44.274Z,96234.38
2019-01-23T16:23:16.370Z,96231.61
2019-01-23T16:25:48.469Z,96239.06
2019-01-23T16:28:20.463Z,96239.02
2019-01-23T16:30:52.809Z,96241.74
2019-01-23T16:33:24.821Z,96236.84
2019-01-23T16:35:59.784Z,96237.55
2019-01-23T16:38:32.019Z,96250.74
2019-01-23T16:41:04.147Z,96244.80
2019-01-23T16:43:36.194Z,96247.01
2019-01-23T16:46:08.248Z,96250.08
2019-01-23T16:48:40.393Z,96250.78
2019-01-23T16:51:12.533Z,96256.36
2019-01-23T16:53:44.540Z,96258.72
2019-01-23T16:56:16.642Z,96259.55
2019-01-23T16:58:48.735Z,96267.69
2019-01-23T17:01:20.827Z,96262.59
2019-01-23T17:03:53.108Z,96273.23
2019-01-23T17:06:25.145Z,96272.04
2019-01-23T17:08:57.228Z,96280.89
2019-01-23T17:11:29.311Z,96286.94
2019-01-23T17:14:01.369Z,96282.72
2019-01-23T17:16:33.430Z,96283.63
2019-01-23T17:19:05.532Z,96285.04
2019-01-23T17:21:37.666Z,96284.42
2019-01-23T17:24:09.718Z,96289.67
2019-01-23T17:26:41.784Z,96297.36
2019-01-23T17:29:15.342Z,96298.61
2019-01-23T17:31:47.590Z,96298.58
2019-01-23T17:34:19.606Z,96300.56
2019-01-23T17:36:51.628Z,96305.88
2019-01-23T17:39:23.705Z,96310.05
2019-01-23T17:41:55.710Z,96305.45
2019-01-23T17:44:27.792Z,96311.85
2019-01-23T17:47:00.222Z,96315.33
2019-01-23T17:49:32.441Z,96316.23
2019-01-23T17:52:04.622Z,96317.58
2019-01-23T17:54:36.800Z,96316.97
2019-01-23T17:57:08.958Z,96311.70
2019-01-23T17:59:41.002Z,96318.70
2019-01-23T18:02:12.995Z,96318.41
2019-01-23T18:04:45.069Z,96321.19
2019-01-23T18:07:17.111Z,96325.30
2019-01-23T18:09:49.241Z,96328.48
2019-01-23T18:12:21.293Z,96333.15
2019-01-23T18:14:53.385Z,96325.66
2019-01-23T18:17:25.413Z,96325.66
2019-01-23T18:19:57.562Z,96331.60
2019-01-23T18:22:29.607Z,96332.92
2019-01-23T18:25:01.753Z,96334.53
2019-01-23T18:27:33.991Z,96336.94
2019-01-23T18:30:10.899Z,96338.30
2019-01-23T18:32:42.920Z,96345.36
2019-01-23T18:35:43.929Z,96346.88
2019-01-23T18:38:29.399Z,96344.95
2019-01-23T18:41:36.779Z,96352.38
2019-01-23T18:44:20.857Z,96355.02
2019-01-23T18:47:09.569Z,96355.84
2019-01-23T18:50:26.750Z,96359.19
2019-01-23T18:52:58.906Z,96363.20
2019-01-23T18:55:30.981Z,96367.22
2019-01-23T18:58:03.301Z,96371.93
2019-01-23T19:00:35.461Z,96376.52
2019-01-23T19:03:07.603Z,96381.63
2019-01-23T19:05:39.670Z,96388.75
2019-01-23T19:08:13.462Z,96381.34
2019-01-23T19:10:45.585Z,96383.47
2019-01-23T19:13:17.677Z,96382.88
2019-01-23T19:15:49.823Z,96383.83
2019-01-23T19:18:21.924Z,96385.08
2019-01-23T19:20:53.980Z,96387.05
2019-01-23T19:23:26.133Z,96393.02
2019-01-23T19:25:58.281Z,96388.33
2019-01-23T19:28:30.308Z,96396.86
2019-01-23T19:31:04.148Z,96399.30
2019-01-23T19:33:36.723Z,96398.04
2019-01-23T19:36:08.783Z,96403.16
2019-01-23T19:38:40.980Z,96409.98
2019-01-23T19:41:13.162Z,96405.02
2019-01-23T19:43:45.315Z,96404.02
2019-01-23T19:46:17.464Z,96406.53
2019-01-23T19:48:50.428Z,96410.13
2019-01-23T19:51:22.492Z,96405.34
2019-01-23T19:53:54.603Z,96406.53
2019-01-23T19:56:26.724Z,96405.20
2019-01-23T19:58:58.858Z,96411.37
2019-01-23T20:01:30.900Z,96412.69
2019-01-23T20:04:03.204Z,96416.53
2019-01-23T20:06:35.435Z,96419.26
2019-01-23T20:09:09.245Z,96418.94
2019-01-23T20:11:41.409Z,96423.48
2019-01-23T20:14:13.559Z,96422.95
2019-01-23T20:16:45.592Z,96427.40
2019-01-23T20:19:17.733Z,96430.26
2019-01-23T20:21:49.779Z,96436.76
2019-01-23T20:24:22.455Z,96439.94
2019-01-23T20:26:54.470Z,96443.95
2019-01-23T20:29:26.684Z,96441.54
2019-01-23T20:31:58.701Z,96447.07
2019-01-23T20:34:30.949Z,96448.56
2019-01-23T20:37:03.101Z,96452.20
2019-01-23T20:39:35.165Z,96457.73
2019-01-23T20:42:07.325Z,96461.88
2019-01-23T20:44:39.545Z,96461.89
2019-01-23T20:47:11.582Z,96464.39
2019-01-23T20:49:43.730Z,96463.63
2019-01-23T20:52:15.843Z,96466.03
2019-01-23T20:54:47.952Z,96461.91
2019-01-23T20:57:19.961Z,96465.91
2019-01-23T20:59:52.152Z,96464.65
2019-01-23T21:02:24.145Z,96471.31
2019-01-23T21:04:56.187Z,96474.69
2019-01-23T21:07:28.362Z,96472.95
2019-01-23T21:10:00.419Z,96474.58
2019-01-23T21:12:32.468Z,96476.70
2019-01-23T21:15:05.154Z,96472.17
2019-01-23T21:17:37.408Z,96480.45
2019-01-23T21:20:09.657Z,96482.72
2019-01-23T21:22:41.660Z,96484.45
2019-01-23T21:25:14.134Z,96487.69
2019-01-23T21:27:46.155Z,96481.70
2019-01-23T21:30:20.874Z,96490.19
2019-01-23T21:32:52.969Z,96490.33
2019-01-23T21:35:24.958Z,96494.95
2019-01-23T21:37:57.089Z,96500.83
2019-01-23T21:40:30.830Z,96501.47
2019-01-23T21:43:02.968Z,96508.61
2019-01-23T21:45:36.547Z,96503.11
2019-01-23T21:48:08.579Z,96512.27
2019-01-23T21:50:40.577Z,96511.65
2019-01-23T21:53:12.662Z,96511.27
2019-01-23T21:55:44.814Z,96508.76
2019-01-23T21:58:16.812Z,96514.16
2019-01-23T22:00:52.218Z,96511.41
2019-01-23T22:03:24.318Z,96518.16
2019-01-23T22:05:56.346Z,96525.97
2019-01-23T22:08:28.434Z,96533.11
2019-01-23T22:11:00.504Z,96537.39
2019-01-23T22:13:32.555Z,96545.64
2019-01-23T22:16:05.959Z,96551.17
2019-01-23T22:18:38.136Z,96545.39
2019-01-23T22:21:10.130Z,96545.59
2019-01-23T22:23:42.132Z,96552.92
2019-01-23T22:26:14.168Z,96555.95
2019-01-23T22:28:46.185Z,96553.69
2019-01-23T22:31:18.169Z,96563.22
2019-01-23T22:33:55.912Z,96562.72
2019-01-23T22:36:24.113Z,96561.97
2019-01-23T22:38:56.125Z,96566.59
2019-01-23T22:41:28.952Z,96569.47
2019-01-23T22:44:00.971Z,96573.23
2019-01-23T22:46:33.010Z,96577.00
2019-01-23T22:49:05.021Z,96570.00
2019-01-23T22:51:37.036Z,96572.23
2019-01-23T22:54:09.034Z,96577.48
2019-01-23T22:56:41.071Z,96582.77
2019-01-23T22:59:13.122Z,96586.02
2019-01-23T23:01:45.305Z,96591.14
2019-01-23T23:04:17.317Z,96596.80
2019-01-23T23:06:49.367Z,96599.56
2019-01-23T23:09:21.377Z,96600.30
2019-01-23T23:11:53.395Z,96603.31
2019-01-23T23:14:25.424Z,96608.19
2019-01-23T23:16:57.455Z,96609.45
2019-01-23T23:19:29.455Z,96615.84
2019-01-23T23:22:01.485Z,96610.58
2019-01-23T23:24:33.487Z,96617.46
2019-01-23T23:27:05.498Z,96623.23
2019-01-23T23:29:37.465Z,96628.86
2019-01-23T23:32:09.520Z,96633.23
2019-01-23T23:34:41.500Z,96638.88
2019-01-23T23:37:13.509Z,96635.88
2019-01-23T23:39:45.483Z,96643.49
2019-01-23T23:42:17.495Z,96646.77
2019-01-23T23:44:49.478Z,96647.66
2019-01-23T23:47:21.475Z,96650.64
2019-01-23T23:49:53.454Z,96647.79
2019-01-23T23:52:25.472Z,96652.27
2019-01-23T23:54:57.420Z,96658.17
2019-01-23T23:57:29.417Z,96663.05
